Main page
METAR-TAF:

METAR-TAF

Airports :

Northeast Kingdom International Airport

Newport, Vermont, United States

latitude: 44-53-20N, longitude: 072-13-45W, elevation: 928 ft

Current weather observation

The report was made 22 minutes ago, at 17:15 UTC
Wind 8 mph from the Southwest
Temperature 34°F
Humidity 100%
Pressure 29.17 in. Hg
Visibility: 1.25 miles
Scattered clouds at a height of 500 ft
Broken clouds at a height of 900 ft
Overcast at a height of 1600 ft
light snow

METAR: KEFK 271715Z AUTO 22007KT 1 1/4SM -SN SCT005 BKN009 OVC016 01/01 A2917 RMK AO2 T00080005

Time: 12:37 (17:37 UTC)


TAF: missing

Weather observations and forecasts of more than 4000 airports (METAR and TAF reports).

The available stations are represented by yellow and red dots on the map.

Hover mouse over dot to see the name of the station.

Then click to see weather observations and forecasts.

To change the map : click on the green buttons with a black cross to zoom in, on the green button with a dash to zoom out, or on the green arrows for adjacent maps.


METAR-TAF: